Time;durP1;ratioP1;P1;durP2;ratioP2;P2;SDS_P1;SDS_P2;PMS_P1;PMS_P2;Temp;Humidity;BMP_temperature;BMP_pressure;BME280_temperature;BME280_humidity;BME280_pressure;Samples;Min_cycle;Max_cycle;Signal;HPM_P1;HPM_P2
2023/09/04 03:01:04;;;;;;;;;;;22.50;58.60;;;;;;5589231;23;45921;-87
2023/09/04 03:03:30;;;;;;;;;;;22.50;58.60;;;;;;4861114;29;46300;-82
2023/09/04 03:05:55;;;;;;;;;;;22.50;58.60;;;;;;4886537;28;45318;-80
2023/09/04 03:08:21;;;;;;;;;;;22.50;58.50;;;;;;4881263;29;46183;-82
2023/09/04 03:10:47;;;;;;;;;;;22.50;58.50;;;;;;4892409;28;45328;-80
2023/09/04 03:13:13;;;;;;;;;;;22.50;58.50;;;;;;4877489;29;45297;-82
2023/09/04 03:15:38;;;;;;;;;;;22.50;58.50;;;;;;4873264;28;45453;-82
2023/09/04 03:18:05;;;;;;;;;;;22.50;59.10;;;;;;4879192;29;46064;-82
2023/09/04 03:20:31;;;;;;;;;;;22.50;58.50;;;;;;4873589;29;45424;-83
2023/09/04 03:22:56;;;;;;;;;;;22.50;58.50;;;;;;4895997;29;44941;-82
2023/09/04 03:25:22;;;;;;;;;;;22.50;58.50;;;;;;4858887;29;45248;-84
2023/09/04 03:27:48;;;;;;;;;;;22.50;58.50;;;;;;4863261;29;46460;-83
2023/09/04 03:30:14;;;;;;;;;;;22.50;58.40;;;;;;4893362;28;45698;-81
2023/09/04 03:32:39;;;;;;;;;;;22.50;58.40;;;;;;4895236;29;45514;-81
2023/09/04 03:35:08;;;;;;;;;;;22.50;58.50;;;;;;4858999;29;45391;-84
2023/09/04 03:37:36;;;;;;;;;;;22.50;58.40;;;;;;4895332;28;46468;-82
2023/09/04 03:40:18;;;;;;;;;;;22.50;58.40;;;;;;4878572;29;45347;-81
2023/09/04 03:42:46;;;;;;;;;;;22.50;58.40;;;;;;4863114;29;45231;-81
2023/09/04 03:45:13;;;;;;;;;;;22.50;58.40;;;;;;4878897;29;45489;-84
2023/09/04 03:47:38;;;;;;;;;;;22.50;58.40;;;;;;4867278;29;46022;-82
2023/09/04 03:50:04;;;;;;;;;;;22.50;58.40;;;;;;4897721;28;45268;-83
2023/09/04 03:52:30;;;;;;;;;;;22.50;58.40;;;;;;4854449;29;45175;-83
2023/09/04 03:54:56;;;;;;;;;;;22.50;58.40;;;;;;4892187;28;44909;-80
2023/09/04 03:57:21;;;;;;;;;;;22.50;58.40;;;;;;4885732;29;45498;-80
2023/09/04 03:59:51;;;;;;;;;;;22.50;58.40;;;;;;4867374;29;45334;-82
2023/09/04 04:02:17;;;;;;;;;;;22.50;58.40;;;;;;4830457;29;45628;-84
2023/09/04 04:04:43;;;;;;;;;;;22.50;58.40;;;;;;4874215;29;45498;-80
2023/09/04 04:07:09;;;;;;;;;;;22.50;58.30;;;;;;4875821;29;46586;-82
2023/09/04 04:09:34;;;;;;;;;;;22.40;58.30;;;;;;4846636;29;45707;-80
2023/09/04 04:12:00;;;;;;;;;;;22.50;58.30;;;;;;4861409;29;45592;-80
2023/09/04 04:14:26;;;;;;;;;;;22.50;58.30;;;;;;4858251;29;44998;-80
2023/09/04 04:16:52;;;;;;;;;;;22.50;58.30;;;;;;4874435;29;45795;-80
2023/09/04 04:19:19;;;;;;;;;;;22.50;58.30;;;;;;4876138;29;45417;-82
2023/09/04 04:21:44;;;;;;;;;;;22.50;58.30;;;;;;4862093;29;44811;-81
2023/09/04 04:24:10;;;;;;;;;;;22.50;58.30;;;;;;4861706;29;45088;-81
2023/09/04 04:26:35;;;;;;;;;;;22.50;58.30;;;;;;4856308;29;46429;-81
2023/09/04 04:29:01;;;;;;;;;;;22.50;58.30;;;;;;4845783;29;45267;-79
2023/09/04 04:31:27;;;;;;;;;;;22.50;58.30;;;;;;4870231;29;44822;-80
2023/09/04 04:33:52;;;;;;;;;;;22.50;58.30;;;;;;4858828;29;45155;-80
2023/09/04 04:36:18;;;;;;;;;;;22.50;58.30;;;;;;4875733;29;47015;-83
2023/09/04 04:38:43;;;;;;;;;;;22.50;58.20;;;;;;4860294;29;45165;-79
2023/09/04 04:41:09;;;;;;;;;;;22.50;58.30;;;;;;4861652;29;45299;-80
2023/09/04 04:43:34;;;;;;;;;;;22.50;58.20;;;;;;4862642;29;45319;-84
2023/09/04 04:45:59;;;;;;;;;;;22.40;58.20;;;;;;4878701;29;45562;-82
2023/09/04 04:48:25;;;;;;;;;;;22.50;58.80;;;;;;4855537;29;45514;-80
2023/09/04 04:50:51;;;;;;;;;;;22.40;58.20;;;;;;4861378;29;45261;-80
2023/09/04 04:53:16;;;;;;;;;;;22.40;58.20;;;;;;4848351;29;45069;-82
2023/09/04 04:55:42;;;;;;;;;;;22.40;58.20;;;;;;4863092;29;45356;-80
2023/09/04 04:58:08;;;;;;;;;;;22.40;58.20;;;;;;4879357;29;45501;-81
2023/09/04 05:00:33;;;;;;;;;;;22.40;58.20;;;;;;4857665;29;45188;-83
2023/09/04 05:02:59;;;;;;;;;;;22.40;58.20;;;;;;4845335;29;45118;-79
2023/09/04 05:05:25;;;;;;;;;;;22.40;58.20;;;;;;4872567;29;45404;-81
2023/09/04 05:07:50;;;;;;;;;;;22.40;58.20;;;;;;4870629;29;44661;-80
2023/09/04 05:10:16;;;;;;;;;;;22.40;58.10;;;;;;4849796;29;44911;-80
2023/09/04 05:12:41;;;;;;;;;;;22.40;58.10;;;;;;4852156;29;45387;-80
2023/09/04 05:15:07;;;;;;;;;;;22.40;58.10;;;;;;4868533;29;47130;-85
2023/09/04 05:17:32;;;;;;;;;;;22.40;58.70;;;;;;4848232;29;45199;-82
2023/09/04 05:19:58;;;;;;;;;;;22.40;58.20;;;;;;4862869;29;45264;-81
2023/09/04 05:22:24;;;;;;;;;;;22.40;58.10;;;;;;4847062;29;47351;-80
2023/09/04 05:24:50;;;;;;;;;;;22.40;58.10;;;;;;4856239;29;47439;-83
2023/09/04 05:27:15;;;;;;;;;;;22.40;58.10;;;;;;4875849;29;45408;-80
2023/09/04 05:29:41;;;;;;;;;;;22.40;58.10;;;;;;4859225;29;44800;-79
2023/09/04 05:32:08;;;;;;;;;;;22.40;58.10;;;;;;4875588;29;45349;-80
2023/09/04 05:34:39;;;;;;;;;;;22.40;58.10;;;;;;4879450;29;47228;-80
2023/09/04 05:37:05;;;;;;;;;;;22.40;58.10;;;;;;4848650;29;45298;-80
2023/09/04 05:39:31;;;;;;;;;;;22.40;58.10;;;;;;4876405;29;45261;-81
2023/09/04 05:41:57;;;;;;;;;;;22.40;58.10;;;;;;4870110;29;45682;-81
2023/09/04 05:44:22;;;;;;;;;;;22.40;58.10;;;;;;4876324;29;45854;-81
2023/09/04 05:46:48;;;;;;;;;;;22.40;58.10;;;;;;4876691;29;45151;-80
2023/09/04 05:49:13;;;;;;;;;;;22.40;58.10;;;;;;4873772;29;45466;-80
2023/09/04 05:51:39;;;;;;;;;;;22.40;58.10;;;;;;4858999;29;45439;-81
2023/09/04 05:54:05;;;;;;;;;;;22.40;58.10;;;;;;4880394;29;45426;-83
2023/09/04 05:56:30;;;;;;;;;;;22.40;58.10;;;;;;4877090;29;44914;-80
2023/09/04 05:58:56;;;;;;;;;;;22.40;58.10;;;;;;4879019;29;45131;-86
2023/09/04 06:01:23;;;;;;;;;;;22.30;58.00;;;;;;4860477;29;45181;-82
2023/09/04 06:03:49;;;;;;;;;;;22.40;58.10;;;;;;4850179;29;48084;-82
2023/09/04 06:06:15;;;;;;;;;;;22.40;58.10;;;;;;4871569;29;45408;-81
2023/09/04 06:08:41;;;;;;;;;;;22.40;58.10;;;;;;4879947;29;44947;-80
2023/09/04 06:11:07;;;;;;;;;;;22.40;58.00;;;;;;4873746;29;45329;-81
2023/09/04 06:13:32;;;;;;;;;;;22.40;58.00;;;;;;4863597;29;45339;-81
2023/09/04 06:15:59;;;;;;;;;;;22.40;58.00;;;;;;4842780;29;45504;-80
2023/09/04 06:18:25;;;;;;;;;;;22.40;58.00;;;;;;4831881;29;45064;-81
2023/09/04 06:20:50;;;;;;;;;;;22.40;58.00;;;;;;4861605;29;45564;-79
2023/09/04 06:23:16;;;;;;;;;;;22.40;58.10;;;;;;4853562;29;46250;-81
2023/09/04 06:25:44;;;;;;;;;;;22.40;58.00;;;;;;4860251;29;45089;-82
2023/09/04 06:28:10;;;;;;;;;;;22.40;58.00;;;;;;4879353;29;44695;-79
2023/09/04 06:30:35;;;;;;;;;;;22.40;58.00;;;;;;4845784;29;45034;-81
2023/09/04 06:33:01;;;;;;;;;;;22.40;58.00;;;;;;4852602;29;46212;-81
2023/09/04 06:35:27;;;;;;;;;;;22.30;58.00;;;;;;4843808;29;46157;-86
2023/09/04 06:37:52;;;;;;;;;;;22.40;58.00;;;;;;4866095;29;45309;-84
2023/09/04 06:40:20;;;;;;;;;;;22.40;58.00;;;;;;4841121;29;45753;-82
2023/09/04 06:42:46;;;;;;;;;;;22.40;58.00;;;;;;4851386;29;46012;-81
2023/09/04 06:45:15;;;;;;;;;;;22.40;58.00;;;;;;4860370;29;45153;-80
2023/09/04 06:47:41;;;;;;;;;;;22.30;57.90;;;;;;4876823;29;45495;-80
2023/09/04 06:50:07;;;;;;;;;;;22.30;57.90;;;;;;4858408;29;45557;-83
2023/09/04 06:52:33;;;;;;;;;;;22.30;57.90;;;;;;4874465;29;46329;-82
2023/09/04 06:54:58;;;;;;;;;;;22.30;57.90;;;;;;4838640;29;44722;-84
2023/09/04 06:57:24;;;;;;;;;;;22.30;57.90;;;;;;4860651;29;45430;-80
2023/09/04 06:59:50;;;;;;;;;;;22.30;57.90;;;;;;4855593;29;44702;-80
2023/09/04 07:02:16;;;;;;;;;;;22.30;58.00;;;;;;4858003;29;45607;-80
2023/09/04 07:04:43;;;;;;;;;;;22.30;57.90;;;;;;4848151;29;44864;-81
2023/09/04 07:07:10;;;;;;;;;;;22.30;57.90;;;;;;4862624;29;44709;-81
2023/09/04 07:09:35;;;;;;;;;;;22.30;57.90;;;;;;4846863;29;45651;-81
2023/09/04 07:12:01;;;;;;;;;;;22.30;57.90;;;;;;4864477;29;45960;-81
2023/09/04 07:14:26;;;;;;;;;;;22.30;57.90;;;;;;4847021;29;45562;-83
2023/09/04 07:16:52;;;;;;;;;;;22.30;57.90;;;;;;4857446;29;45444;-80
2023/09/04 07:19:18;;;;;;;;;;;22.30;57.90;;;;;;4867827;29;45433;-81
2023/09/04 07:21:44;;;;;;;;;;;22.30;57.90;;;;;;4875803;29;45342;-80
2023/09/04 07:24:09;;;;;;;;;;;22.30;57.90;;;;;;4860909;29;45134;-83
2023/09/04 07:26:35;;;;;;;;;;;22.30;57.90;;;;;;4856307;29;45429;-79
2023/09/04 07:29:00;;;;;;;;;;;22.30;57.90;;;;;;4871769;29;45796;-81
2023/09/04 07:31:26;;;;;;;;;;;22.30;57.90;;;;;;4856976;29;45441;-80
2023/09/04 07:33:52;;;;;;;;;;;22.30;57.90;;;;;;4859736;29;46229;-83
2023/09/04 07:36:17;;;;;;;;;;;22.30;57.90;;;;;;4875271;29;45721;-80
2023/09/04 07:38:44;;;;;;;;;;;22.30;57.90;;;;;;4857221;29;44947;-81
2023/09/04 07:41:09;;;;;;;;;;;22.30;57.90;;;;;;4860126;29;46582;-80
2023/09/04 07:43:35;;;;;;;;;;;22.30;57.90;;;;;;4847196;29;45305;-81
2023/09/04 07:46:00;;;;;;;;;;;22.30;58.50;;;;;;4862901;29;46150;-80
2023/09/04 07:48:27;;;;;;;;;;;22.30;57.80;;;;;;4852772;29;46220;-82
2023/09/04 07:50:53;;;;;;;;;;;22.30;57.80;;;;;;4845625;29;47183;-81
2023/09/04 07:53:19;;;;;;;;;;;22.30;57.80;;;;;;4880211;29;45495;-80
2023/09/04 07:55:45;;;;;;;;;;;22.30;57.80;;;;;;4876174;29;45469;-81
2023/09/04 07:58:10;;;;;;;;;;;22.30;57.90;;;;;;4858101;29;45683;-78
2023/09/04 08:00:36;;;;;;;;;;;22.30;57.80;;;;;;4856664;29;45466;-80
2023/09/04 08:03:02;;;;;;;;;;;22.30;57.80;;;;;;4897257;28;45209;-80
2023/09/04 08:05:28;;;;;;;;;;;22.30;57.80;;;;;;4877621;29;44920;-81
2023/09/04 08:07:56;;;;;;;;;;;22.30;57.80;;;;;;4891385;29;44912;-81
2023/09/04 08:10:22;;;;;;;;;;;22.30;57.80;;;;;;4861566;28;45452;-80
2023/09/04 08:12:48;;;;;;;;;;;22.30;57.80;;;;;;4886337;29;45034;-83
2023/09/04 08:15:13;;;;;;;;;;;22.30;57.70;;;;;;4891538;29;45381;-82
2023/09/04 08:17:41;;;;;;;;;;;22.30;57.90;;;;;;4877642;29;45436;-79
2023/09/04 08:20:07;;;;;;;;;;;22.30;58.10;;;;;;4895390;28;46567;-81
2023/09/04 08:22:33;;;;;;;;;;;22.30;58.00;;;;;;4882348;29;44952;-79
2023/09/04 08:24:59;;;;;;;;;;;22.30;57.80;;;;;;4897110;28;45226;-81
2023/09/04 08:27:24;;;;;;;;;;;22.30;57.90;;;;;;4893825;28;45378;-79
2023/09/04 08:29:51;;;;;;;;;;;22.40;57.90;;;;;;4863796;29;47263;-80
2023/09/04 08:32:16;;;;;;;;;;;22.40;58.00;;;;;;4890233;28;45334;-85
2023/09/04 08:34:42;;;;;;;;;;;22.30;57.90;;;;;;4897026;28;45039;-79
2023/09/04 08:37:07;;;;;;;;;;;22.30;57.90;;;;;;4877331;29;44938;-81
2023/09/04 08:39:33;;;;;;;;;;;22.30;57.90;;;;;;4885986;29;46423;-84
2023/09/04 08:41:58;;;;;;;;;;;22.30;57.80;;;;;;4881173;28;45251;-80
2023/09/04 08:44:24;;;;;;;;;;;22.30;57.90;;;;;;4896740;29;45366;-80
2023/09/04 08:46:50;;;;;;;;;;;22.30;57.90;;;;;;4880532;29;45404;-80
2023/09/04 08:49:16;;;;;;;;;;;22.30;57.90;;;;;;4884086;29;45497;-80
2023/09/04 08:51:42;;;;;;;;;;;22.40;58.00;;;;;;4868216;29;45713;-79
2023/09/04 08:54:08;;;;;;;;;;;22.30;57.90;;;;;;4897017;29;44698;-84
2023/09/04 08:56:33;;;;;;;;;;;22.40;58.00;;;;;;4867624;29;45304;-81
2023/09/04 08:58:59;;;;;;;;;;;22.30;57.90;;;;;;4887544;29;46029;-81
2023/09/04 09:01:26;;;;;;;;;;;22.30;57.90;;;;;;4852161;29;45528;-81
2023/09/04 09:03:51;;;;;;;;;;;22.40;57.90;;;;;;4902465;28;46383;-82
2023/09/04 09:06:17;;;;;;;;;;;22.40;57.90;;;;;;4868666;29;45318;-81
2023/09/04 09:08:43;;;;;;;;;;;22.30;57.90;;;;;;4900967;29;45775;-81
2023/09/04 09:11:10;;;;;;;;;;;22.30;57.90;;;;;;4898779;29;44709;-84
2023/09/04 09:13:35;;;;;;;;;;;22.30;57.90;;;;;;4889032;29;45329;-79
2023/09/04 09:16:01;;;;;;;;;;;22.30;57.90;;;;;;4899414;28;45117;-80
2023/09/04 09:18:33;;;;;;;;;;;22.30;57.90;;;;;;4884818;29;45633;-81
2023/09/04 09:20:58;;;;;;;;;;;22.40;57.90;;;;;;4877569;29;44836;-81
2023/09/04 09:23:24;;;;;;;;;;;22.40;58.00;;;;;;4897153;28;45177;-82
2023/09/04 09:25:53;;;;;;;;;;;22.40;58.00;;;;;;4894647;28;45193;-80
2023/09/04 09:28:19;;;;;;;;;;;22.40;57.90;;;;;;4882690;29;45534;-80
2023/09/04 09:30:44;;;;;;;;;;;22.40;57.90;;;;;;4865557;29;45552;-81
2023/09/04 09:33:12;;;;;;;;;;;22.40;58.00;;;;;;4883601;28;45552;-78
2023/09/04 09:35:41;;;;;;;;;;;22.40;58.00;;;;;;4882539;29;45402;-79
2023/09/04 09:38:06;;;;;;;;;;;22.40;57.90;;;;;;4896470;28;45729;-81
2023/09/04 09:40:32;;;;;;;;;;;22.40;57.90;;;;;;4898522;28;45322;-79
2023/09/04 09:43:01;;;;;;;;;;;22.40;57.90;;;;;;4875102;29;44986;-80
2023/09/04 09:45:31;;;;;;;;;;;22.40;58.00;;;;;;4872548;29;44847;-81
2023/09/04 09:47:56;;;;;;;;;;;22.30;57.90;;;;;;4862600;29;47366;-82
2023/09/04 09:50:22;;;;;;;;;;;22.40;58.00;;;;;;4880365;29;45305;-80
2023/09/04 09:52:58;;;;;;;;;;;22.40;58.00;;;;;;4861779;29;45284;-82
2023/09/04 09:55:24;;;;;;;;;;;22.40;58.00;;;;;;4879155;28;45287;-82
2023/09/04 09:57:50;;;;;;;;;;;22.40;58.00;;;;;;4883282;28;45403;-81
2023/09/04 10:00:17;;;;;;;;;;;22.40;57.90;;;;;;4877774;28;45292;-81
2023/09/04 10:02:42;;;;;;;;;;;22.40;58.00;;;;;;4884090;28;45810;-80
2023/09/04 10:05:09;;;;;;;;;;;22.40;57.90;;;;;;4895548;28;45235;-81
2023/09/04 10:07:35;;;;;;;;;;;22.40;58.00;;;;;;4900364;28;45611;-82
2023/09/04 10:10:07;;;;;;;;;;;22.40;58.00;;;;;;4881353;29;44950;-80
2023/09/04 10:12:34;;;;;;;;;;;22.40;58.00;;;;;;4892713;28;45027;-79
2023/09/04 10:15:02;;;;;;;;;;;22.40;57.90;;;;;;4862299;29;45102;-80
2023/09/04 10:17:38;;;;;;;;;;;22.40;58.00;;;;;;4868311;29;47382;-81
2023/09/04 10:20:04;;;;;;;;;;;22.40;58.00;;;;;;4899754;29;45982;-84
2023/09/04 10:22:34;;;;;;;;;;;22.40;58.00;;;;;;4865163;28;46046;-79
2023/09/04 10:25:07;;;;;;;;;;;22.40;57.90;;;;;;4897388;28;45583;-81
2023/09/04 10:27:35;;;;;;;;;;;22.40;58.00;;;;;;4884183;29;46205;-82
2023/09/04 10:30:07;;;;;;;;;;;22.40;57.90;;;;;;4887779;29;45630;-80
2023/09/04 10:32:33;;;;;;;;;;;22.40;58.00;;;;;;4881172;28;45357;-80
2023/09/04 10:34:59;;;;;;;;;;;22.50;58.10;;;;;;4870637;29;45693;-81
2023/09/04 10:37:29;;;;;;;;;;;22.40;58.00;;;;;;4876092;29;45185;-80
2023/09/04 10:39:55;;;;;;;;;;;22.50;58.00;;;;;;4899716;28;45213;-81
2023/09/04 10:42:23;;;;;;;;;;;22.40;58.00;;;;;;4880196;29;45366;-80
2023/09/04 10:44:49;;;;;;;;;;;22.50;58.00;;;;;;4885331;29;45488;-80
2023/09/04 10:47:16;;;;;;;;;;;22.40;58.00;;;;;;4892392;28;45281;-81
2023/09/04 10:49:43;;;;;;;;;;;22.50;58.00;;;;;;4902434;28;45215;-81
2023/09/04 10:52:08;;;;;;;;;;;22.50;58.00;;;;;;4892010;29;45418;-80
2023/09/04 10:54:34;;;;;;;;;;;22.50;58.00;;;;;;4899447;28;45399;-81
2023/09/04 10:57:00;;;;;;;;;;;22.50;58.10;;;;;;4881229;29;46262;-80
2023/09/04 10:59:26;;;;;;;;;;;22.50;58.00;;;;;;4883785;28;45283;-80
2023/09/04 11:01:52;;;;;;;;;;;22.50;58.10;;;;;;4876270;28;45354;-84
2023/09/04 11:04:32;;;;;;;;;;;22.50;58.10;;;;;;4880242;28;45592;-82
2023/09/04 11:07:15;;;;;;;;;;;22.50;58.00;;;;;;4883476;29;46202;-80
2023/09/04 11:09:41;;;;;;;;;;;22.50;58.10;;;;;;4882812;29;45216;-80
2023/09/04 11:12:11;;;;;;;;;;;22.50;58.00;;;;;;4885771;28;44888;-82
2023/09/04 11:14:43;;;;;;;;;;;22.50;58.10;;;;;;4881284;29;45639;-80
2023/09/04 11:17:09;;;;;;;;;;;22.50;58.00;;;;;;4878368;29;45331;-80
2023/09/04 11:19:34;;;;;;;;;;;22.50;58.10;;;;;;4880730;29;45322;-82
2023/09/04 11:22:00;;;;;;;;;;;22.50;58.10;;;;;;4898356;28;45218;-79
2023/09/04 11:24:25;;;;;;;;;;;22.50;58.00;;;;;;4870787;29;44828;-80
2023/09/04 11:26:51;;;;;;;;;;;22.50;58.00;;;;;;4877660;29;45879;-83
2023/09/04 11:29:19;;;;;;;;;;;22.50;58.10;;;;;;4867697;29;45311;-83
2023/09/04 11:31:45;;;;;;;;;;;22.50;58.00;;;;;;4893346;28;45448;-81
2023/09/04 11:34:10;;;;;;;;;;;22.50;58.00;;;;;;4888995;28;45559;-84
2023/09/04 11:36:39;;;;;;;;;;;22.50;58.00;;;;;;4882225;29;45593;-82
2023/09/04 11:39:04;;;;;;;;;;;22.50;58.10;;;;;;4879106;29;45274;-80
2023/09/04 11:41:30;;;;;;;;;;;22.60;58.10;;;;;;4891675;28;45259;-79
2023/09/04 11:43:55;;;;;;;;;;;22.50;58.10;;;;;;4869290;29;44786;-81
2023/09/04 11:46:21;;;;;;;;;;;22.50;58.00;;;;;;4863807;29;46143;-79
2023/09/04 11:48:47;;;;;;;;;;;22.50;58.10;;;;;;4870702;29;45156;-81
2023/09/04 11:51:12;;;;;;;;;;;22.50;58.00;;;;;;4878181;28;45569;-80
2023/09/04 11:53:38;;;;;;;;;;;22.50;58.00;;;;;;4885349;29;45712;-79
2023/09/04 11:56:05;;;;;;;;;;;22.60;58.10;;;;;;4893754;28;45346;-80
2023/09/04 11:58:30;;;;;;;;;;;22.50;58.10;;;;;;4886012;29;45302;-79
2023/09/04 12:00:56;;;;;;;;;;;22.50;58.00;;;;;;4877474;28;45374;-80
2023/09/04 12:03:22;;;;;;;;;;;22.60;58.20;;;;;;4885184;29;44791;-81
2023/09/04 12:05:51;;;;;;;;;;;22.60;58.10;;;;;;4879537;29;45326;-81
2023/09/04 12:08:17;;;;;;;;;;;22.60;58.10;;;;;;4884311;29;44666;-82
2023/09/04 12:10:43;;;;;;;;;;;22.60;58.10;;;;;;4896001;28;45418;-79
2023/09/04 12:13:09;;;;;;;;;;;22.60;58.20;;;;;;4897230;29;44730;-80
2023/09/04 12:15:34;;;;;;;;;;;22.60;58.20;;;;;;4886438;29;45188;-82
2023/09/04 12:18:01;;;;;;;;;;;22.60;58.10;;;;;;4902251;28;45222;-81
2023/09/04 12:20:30;;;;;;;;;;;22.60;58.10;;;;;;4895925;29;44753;-87
2023/09/04 12:22:56;;;;;;;;;;;22.60;58.10;;;;;;4871626;29;45345;-81
2023/09/04 12:25:25;;;;;;;;;;;22.60;58.10;;;;;;4886828;29;46563;-81
2023/09/04 12:27:51;;;;;;;;;;;22.60;58.10;;;;;;4904499;28;45635;-79
2023/09/04 12:30:16;;;;;;;;;;;22.60;58.10;;;;;;4897871;28;45191;-81
2023/09/04 12:32:42;;;;;;;;;;;22.60;58.10;;;;;;4872865;29;45158;-80
2023/09/04 12:35:08;;;;;;;;;;;22.60;58.10;;;;;;4882750;29;45292;-83
2023/09/04 12:37:33;;;;;;;;;;;22.60;58.10;;;;;;4884760;28;45692;-81
2023/09/04 12:39:59;;;;;;;;;;;22.50;58.10;;;;;;4871737;29;45364;-81
2023/09/04 12:42:24;;;;;;;;;;;22.60;58.10;;;;;;4891195;29;45331;-82
2023/09/04 12:44:51;;;;;;;;;;;22.60;58.20;;;;;;4894053;29;45355;-80
2023/09/04 12:47:16;;;;;;;;;;;22.60;58.20;;;;;;4883108;29;45174;-80
2023/09/04 12:49:42;;;;;;;;;;;22.60;58.10;;;;;;4886737;29;45492;-80
2023/09/04 12:52:07;;;;;;;;;;;22.60;58.10;;;;;;4886711;29;46207;-83
2023/09/04 12:54:33;;;;;;;;;;;22.60;58.10;;;;;;4888535;29;46556;-80
2023/09/04 12:56:58;;;;;;;;;;;22.60;58.10;;;;;;4870742;29;45350;-81
2023/09/04 12:59:24;;;;;;;;;;;22.60;58.10;;;;;;4899911;28;45198;-81
2023/09/04 13:01:49;;;;;;;;;;;22.60;58.10;;;;;;4849812;29;45361;-79
2023/09/04 13:04:15;;;;;;;;;;;22.60;58.10;;;;;;4870406;29;45321;-83
2023/09/04 13:06:41;;;;;;;;;;;22.60;58.10;;;;;;4879628;29;45466;-81
2023/09/04 13:09:06;;;;;;;;;;;22.60;58.70;;;;;;4876357;29;45435;-80
2023/09/04 13:11:32;;;;;;;;;;;22.50;58.10;;;;;;4878407;29;45595;-80
2023/09/04 13:13:57;;;;;;;;;;;22.60;58.10;;;;;;4851821;29;46502;-81
2023/09/04 13:16:23;;;;;;;;;;;22.60;58.20;;;;;;4858951;29;45336;-79
2023/09/04 13:18:49;;;;;;;;;;;22.60;58.10;;;;;;4877878;29;45761;-80
2023/09/04 13:21:14;;;;;;;;;;;22.60;58.10;;;;;;4859658;29;45301;-80
2023/09/04 13:23:42;;;;;;;;;;;22.60;58.10;;;;;;4863855;29;46239;-80
2023/09/04 13:26:07;;;;;;;;;;;22.60;58.10;;;;;;4860142;29;45324;-80
2023/09/04 13:28:33;;;;;;;;;;;22.60;58.20;;;;;;4880904;29;45347;-81
2023/09/04 13:31:02;;;;;;;;;;;22.60;58.10;;;;;;4864567;29;45483;-81
2023/09/04 13:33:28;;;;;;;;;;;22.60;58.10;;;;;;4880952;29;45379;-82
2023/09/04 13:35:53;;;;;;;;;;;22.50;58.10;;;;;;4839998;29;45242;-81
2023/09/04 13:38:21;;;;;;;;;;;22.60;58.20;;;;;;4857637;29;45340;-81
2023/09/04 13:40:46;;;;;;;;;;;22.60;58.20;;;;;;4866218;29;45534;-80
2023/09/04 13:43:12;;;;;;;;;;;22.60;58.20;;;;;;4867788;29;46887;-82
2023/09/04 13:45:38;;;;;;;;;;;22.60;58.20;;;;;;4876053;29;45209;-81
2023/09/04 13:48:03;;;;;;;;;;;22.60;58.20;;;;;;4845880;29;45616;-82
2023/09/04 13:50:29;;;;;;;;;;;22.60;58.20;;;;;;4877232;29;45384;-82
2023/09/04 13:52:55;;;;;;;;;;;22.60;58.20;;;;;;4850551;29;47284;-82
2023/09/04 13:55:20;;;;;;;;;;;22.60;58.20;;;;;;4874845;29;45788;-83
2023/09/04 13:57:46;;;;;;;;;;;22.60;58.20;;;;;;4854733;29;44655;-83
2023/09/04 14:00:15;;;;;;;;;;;22.60;58.20;;;;;;4870568;29;45742;-80
2023/09/04 14:02:41;;;;;;;;;;;22.60;58.20;;;;;;4893092;28;47120;-79
2023/09/04 14:05:07;;;;;;;;;;;22.60;58.20;;;;;;4883953;29;45301;-83
2023/09/04 14:07:33;;;;;;;;;;;22.60;58.20;;;;;;4856287;29;44912;-85
2023/09/04 14:10:00;;;;;;;;;;;22.60;58.20;;;;;;4903887;28;44812;-80
2023/09/04 14:12:25;;;;;;;;;;;22.60;58.20;;;;;;4881170;28;46529;-82
2023/09/04 14:14:51;;;;;;;;;;;22.60;58.80;;;;;;4899919;28;45225;-82
2023/09/04 14:17:16;;;;;;;;;;;22.60;58.20;;;;;;4884343;29;45047;-80
2023/09/04 14:19:42;;;;;;;;;;;22.60;58.20;;;;;;4888336;29;45417;-80
2023/09/04 14:22:07;;;;;;;;;;;22.60;58.20;;;;;;4894682;28;47399;-83
2023/09/04 14:24:34;;;;;;;;;;;22.60;58.20;;;;;;4872287;29;44608;-80
2023/09/04 14:26:59;;;;;;;;;;;22.60;58.20;;;;;;4855284;29;44568;-80
2023/09/04 14:29:25;;;;;;;;;;;22.60;58.20;;;;;;4876840;29;45070;-80
2023/09/04 14:31:51;;;;;;;;;;;22.60;58.20;;;;;;4889974;29;45913;-86
2023/09/04 14:34:17;;;;;;;;;;;22.60;58.20;;;;;;4901142;28;45057;-80
2023/09/04 14:36:42;;;;;;;;;;;22.60;58.20;;;;;;4883606;29;45253;-81
2023/09/04 14:39:08;;;;;;;;;;;22.60;58.20;;;;;;4874842;29;45270;-83
2023/09/04 14:41:35;;;;;;;;;;;22.60;58.70;;;;;;4870558;29;46172;-80
2023/09/04 14:44:01;;;;;;;;;;;22.60;58.20;;;;;;4870654;29;44695;-80
2023/09/04 14:46:30;;;;;;;;;;;22.60;58.20;;;;;;4889938;29;45173;-83
2023/09/04 14:48:56;;;;;;;;;;;22.60;58.20;;;;;;4876149;29;46821;-81
2023/09/04 14:51:22;;;;;;;;;;;22.60;58.20;;;;;;4870300;28;46963;-80
2023/09/04 14:53:51;;;;;;;;;;;22.60;58.20;;;;;;4897120;28;45745;-80
2023/09/04 14:56:17;;;;;;;;;;;22.60;58.20;;;;;;4861205;29;46037;-79
2023/09/04 14:58:43;;;;;;;;;;;22.60;58.20;;;;;;4879601;28;45205;-82
2023/09/04 15:01:26;;;;;;;;;;;22.60;58.20;;;;;;4892832;28;45666;-81
2023/09/04 15:03:52;;;;;;;;;;;22.60;58.20;;;;;;4897335;28;44644;-79
2023/09/04 15:06:17;;;;;;;;;;;22.60;58.20;;;;;;4896928;28;45628;-80
2023/09/04 15:08:44;;;;;;;;;;;22.60;58.20;;;;;;4880076;29;45424;-82
2023/09/04 15:11:11;;;;;;;;;;;22.60;58.20;;;;;;4895828;29;46346;-80
2023/09/04 15:13:36;;;;;;;;;;;22.60;58.20;;;;;;4881028;29;45482;-81
2023/09/04 15:16:03;;;;;;;;;;;22.60;58.20;;;;;;4896327;29;45418;-79
2023/09/04 15:18:35;;;;;;;;;;;22.60;58.20;;;;;;4885353;28;45628;-80
2023/09/04 15:21:01;;;;;;;;;;;22.60;58.20;;;;;;4879964;28;45278;-82
2023/09/04 15:23:27;;;;;;;;;;;22.60;58.20;;;;;;4881249;29;45093;-82
2023/09/04 15:25:53;;;;;;;;;;;22.60;58.20;;;;;;4895544;29;45659;-80
2023/09/04 15:28:19;;;;;;;;;;;22.60;58.20;;;;;;4898232;28;45628;-79
2023/09/04 15:30:45;;;;;;;;;;;22.60;58.20;;;;;;4894399;28;46529;-82
2023/09/04 15:33:11;;;;;;;;;;;22.60;58.20;;;;;;4883817;29;46940;-80
2023/09/04 15:35:36;;;;;;;;;;;22.60;58.20;;;;;;4884758;29;44703;-80
2023/09/04 15:38:03;;;;;;;;;;;22.60;58.20;;;;;;4899233;29;44822;-80
2023/09/04 15:40:28;;;;;;;;;;;22.60;58.20;;;;;;4894861;28;45621;-81
2023/09/04 15:42:54;;;;;;;;;;;22.60;58.20;;;;;;4882742;29;45191;-82
2023/09/04 15:45:20;;;;;;;;;;;22.60;58.20;;;;;;4878092;29;45304;-79
2023/09/04 15:47:45;;;;;;;;;;;22.60;58.20;;;;;;4899854;28;45539;-80
2023/09/04 15:50:11;;;;;;;;;;;22.60;58.20;;;;;;4874751;29;46129;-82
2023/09/04 15:52:36;;;;;;;;;;;22.60;58.20;;;;;;4864604;29;45342;-80
2023/09/04 15:55:02;;;;;;;;;;;22.60;58.20;;;;;;4890833;29;45014;-88
2023/09/04 15:57:31;;;;;;;;;;;22.60;58.20;;;;;;4870523;29;45234;-81
2023/09/04 15:59:57;;;;;;;;;;;22.60;58.20;;;;;;4895859;28;45290;-80
2023/09/04 16:02:22;;;;;;;;;;;22.60;58.20;;;;;;4880185;28;46028;-79
2023/09/04 16:04:48;;;;;;;;;;;22.60;58.20;;;;;;4882106;29;45074;-83
2023/09/04 16:07:13;;;;;;;;;;;22.60;58.20;;;;;;4852102;29;45206;-81
2023/09/04 16:09:39;;;;;;;;;;;22.60;58.20;;;;;;4885087;29;45380;-80
2023/09/04 16:12:05;;;;;;;;;;;22.60;58.20;;;;;;4893592;28;45223;-80
2023/09/04 16:14:31;;;;;;;;;;;22.60;58.20;;;;;;4894872;28;45521;-80
2023/09/04 16:16:57;;;;;;;;;;;22.60;58.20;;;;;;4875054;29;45574;-80
2023/09/04 16:19:22;;;;;;;;;;;22.60;58.20;;;;;;4897886;28;46711;-81
2023/09/04 16:21:48;;;;;;;;;;;22.70;58.20;;;;;;4864092;28;45526;-80
2023/09/04 16:24:13;;;;;;;;;;;22.70;58.20;;;;;;4883051;29;45025;-80
2023/09/04 16:26:39;;;;;;;;;;;22.60;58.20;;;;;;4866347;28;45196;-81
2023/09/04 16:29:06;;;;;;;;;;;22.60;58.20;;;;;;4874561;29;46583;-83
2023/09/04 16:31:32;;;;;;;;;;;22.60;58.20;;;;;;4878836;28;45606;-80
2023/09/04 16:33:58;;;;;;;;;;;22.60;58.20;;;;;;4886083;28;45235;-79
2023/09/04 16:36:25;;;;;;;;;;;22.60;58.20;;;;;;4891537;29;45499;-80
2023/09/04 16:38:51;;;;;;;;;;;22.60;58.20;;;;;;4864165;29;46214;-81
2023/09/04 16:41:17;;;;;;;;;;;22.70;58.20;;;;;;4873527;29;45066;-80
2023/09/04 16:43:43;;;;;;;;;;;22.60;58.20;;;;;;4883707;29;45563;-81
2023/09/04 16:46:09;;;;;;;;;;;22.60;58.20;;;;;;4872981;29;45249;-80
2023/09/04 16:48:35;;;;;;;;;;;22.60;58.80;;;;;;4892318;28;45540;-81
2023/09/04 16:51:00;;;;;;;;;;;22.60;58.20;;;;;;4894606;28;45364;-80
2023/09/04 16:53:26;;;;;;;;;;;22.70;58.20;;;;;;4879924;29;44711;-84
2023/09/04 16:55:52;;;;;;;;;;;22.60;58.20;;;;;;4878245;28;45231;-81
2023/09/04 16:58:18;;;;;;;;;;;22.70;58.20;;;;;;4863482;28;46042;-81
2023/09/04 17:00:44;;;;;;;;;;;22.70;58.20;;;;;;4890829;28;44938;-81
2023/09/04 17:03:10;;;;;;;;;;;22.60;58.10;;;;;;4879411;29;44848;-81
2023/09/04 17:05:38;;;;;;;;;;;22.60;58.20;;;;;;4880767;29;45670;-81
2023/09/04 17:08:03;;;;;;;;;;;22.70;58.20;;;;;;4895603;28;45169;-81
2023/09/04 17:10:29;;;;;;;;;;;22.70;58.20;;;;;;4881070;29;44847;-80